San Juan Capistrano, CA (92675)

8:05 PM PDT on September 01, 2015 (GMT -0700)
SJC-NON HOA | | Change Station
CLOSE
Current Station
Personal Weather Station
Location: San Juan Capistrano, CA
Elevation: 131 ft
Nearby Weather Stations

Elev 131 ft 33.51 °N, 117.64 °W | Updated 14 minutes ago

Mostly Cloudy
Mostly Cloudy
70.5 °F
Feels Like 73 °F
N
1.7
Wind Variable Wind from ESE

Today
High -- | Low -- °F
--% Chance of Precip.
Yesterday
High -- | Low -- °F
Precip. -- in
6:24 AM 7:16 PM
Waning Gibbous, 84% visible
Pressure 30.17 in
Visibility 9.0 miles
Clouds Mostly Cloudy 1900 ft
Heat Index 73 °F
Dew Point 61 °F
Humidity 73%
Rainfall 0.00 in
Snow Depth Not available.
UV 0 out of 12
Pollen 7.20 out of 12
Air Quality Not available.
Flu Activity Not available.
METAR KNXF 020256Z AUTO 00000KT 9SM BKN019 21/16 A2992 RMK AO2 SLP216 T02110161 53008 $
Pressure 30.17 in
Visibility 9.0 miles
Clouds Mostly Cloudy 1900 ft
Heat Index 73 °F
Dew Point 61 °F
Humidity 73%
Rainfall 0.00 in
Snow Depth Not available.
UV 0 out of 12
Pollen 7.20 out of 12
Air Quality Not available.
Flu Activity Not available.
METAR KNXF 020256Z AUTO 00000KT 9SM BKN019 21/16 A2992 RMK AO2 SLP216 T02110161 53008 $

10-Day Weather Forecast

×

Almanac

Astronomy

Sep. 01, 2015 Rise Set
Actual Time
Civil Twilight
Nautical Twilight
Astronomical Twilight
Moon
Length of Visible Light
Length of Day
Tomorrow will be .
, % of the Moon is Illuminated

Today's Extremes

State Highs State Lows

Community

WunderPhotos

Upload Photos

1,851,682 photos uploaded!

WunderBlogs® & News

Nearby

Air Quality

  Air Quality AQ Index Pollutant
Not available.

Snow Depth

Station Depth Elevation

Earthquake Activity

City Distance Mag. Time & Date
Minimum magnitude displayed is 2.5.

Coastal Water Temperatures

Place Temperature

Stations

Nearby Weather Stations

Station Location Temp. Windchill Dew Point Humidity Wind Precip. Elev Updated Type